createdAt,value
2022-08-17T00:00:03.772Z,28.40
2022-08-17T00:02:59.877Z,28.40
2022-08-17T00:05:37.822Z,28.40
2022-08-17T00:08:05.438Z,28.40
2022-08-17T00:10:32.917Z,28.40
2022-08-17T00:13:00.627Z,28.40
2022-08-17T00:15:27.634Z,28.40
2022-08-17T00:17:54.674Z,28.40
2022-08-17T00:20:23.417Z,28.40
2022-08-17T00:23:17.262Z,28.40
2022-08-17T00:25:46.772Z,28.40
2022-08-17T00:28:16.149Z,28.40
2022-08-17T00:30:51.157Z,28.40
2022-08-17T00:33:25.071Z,28.40
2022-08-17T00:35:53.274Z,28.40
2022-08-17T00:38:20.790Z,28.40
2022-08-17T00:40:55.906Z,28.40
2022-08-17T00:43:42.133Z,28.40
2022-08-17T00:46:26.716Z,28.40
2022-08-17T00:48:53.831Z,28.30
2022-08-17T00:51:33.486Z,28.40
2022-08-17T00:54:25.093Z,28.30
2022-08-17T00:57:06.987Z,28.30
2022-08-17T00:59:55.906Z,28.40
2022-08-17T01:02:34.881Z,28.30
2022-08-17T01:05:14.070Z,28.30
2022-08-17T01:07:41.797Z,28.30
2022-08-17T01:10:59.779Z,28.30
2022-08-17T01:13:02.505Z,28.30
2022-08-17T01:15:36.708Z,28.30
2022-08-17T01:18:08.798Z,28.30
2022-08-17T01:20:57.691Z,28.30
2022-08-17T01:23:26.546Z,28.30
2022-08-17T01:25:57.551Z,28.30
2022-08-17T01:28:52.750Z,28.20
2022-08-17T01:31:16.831Z,28.30
2022-08-17T01:33:43.885Z,28.20
2022-08-17T01:36:10.905Z,28.30
2022-08-17T01:38:39.229Z,28.30
2022-08-17T01:41:13.490Z,28.30
2022-08-17T01:43:58.978Z,28.20
2022-08-17T01:46:27.623Z,28.20
2022-08-17T01:48:56.265Z,28.20
2022-08-17T01:51:32.113Z,28.20
2022-08-17T01:54:06.913Z,28.20
2022-08-17T01:56:36.727Z,28.10
2022-08-17T01:59:04.605Z,28.10
2022-08-17T02:01:34.642Z,28.10
2022-08-17T02:04:02.154Z,28.10
2022-08-17T02:06:31.617Z,28.10
2022-08-17T02:09:16.990Z,28.10
2022-08-17T02:11:44.896Z,28.00
2022-08-17T02:14:13.796Z,28.00
2022-08-17T02:16:41.737Z,28.00
2022-08-17T02:19:12.302Z,28.00
2022-08-17T02:21:40.717Z,27.90
2022-08-17T02:24:13.112Z,27.90
2022-08-17T02:26:40.267Z,27.90
2022-08-17T02:29:07.408Z,27.80
2022-08-17T02:31:35.557Z,27.80
2022-08-17T02:34:04.584Z,27.80
2022-08-17T02:36:34.251Z,27.80
2022-08-17T02:39:06.290Z,27.80
2022-08-17T02:41:33.685Z,27.70
2022-08-17T02:44:03.187Z,27.70
2022-08-17T02:46:31.057Z,27.70
2022-08-17T02:48:59.138Z,27.70
2022-08-17T02:51:26.881Z,27.60
2022-08-17T02:54:40.537Z,27.60
2022-08-17T02:56:41.354Z,27.60
2022-08-17T02:59:08.333Z,27.60
2022-08-17T03:01:35.453Z,27.60
2022-08-17T03:04:02.726Z,27.50
2022-08-17T03:06:30.396Z,27.50
2022-08-17T03:08:57.740Z,27.50
2022-08-17T03:11:24.705Z,27.50
2022-08-17T03:13:51.732Z,27.50
2022-08-17T03:16:18.665Z,27.40
2022-08-17T03:18:46.006Z,27.40
2022-08-17T03:21:13.189Z,27.40
2022-08-17T03:23:42.127Z,27.40
2022-08-17T03:26:15.428Z,27.40
2022-08-17T03:28:42.919Z,27.30
2022-08-17T03:31:10.020Z,27.30
2022-08-17T03:33:40.110Z,27.30
2022-08-17T03:36:07.583Z,27.30
2022-08-17T03:38:39.218Z,27.20
2022-08-17T03:41:09.477Z,27.20
2022-08-17T03:43:36.512Z,27.20
2022-08-17T03:46:33.929Z,27.20
2022-08-17T03:49:26.015Z,27.20
2022-08-17T03:52:12.844Z,27.20
2022-08-17T03:54:59.236Z,27.20
2022-08-17T03:57:26.303Z,27.20
2022-08-17T03:59:54.230Z,27.20
2022-08-17T04:02:27.923Z,27.20
2022-08-17T04:04:55.063Z,27.20
2022-08-17T04:07:24.368Z,27.20
2022-08-17T04:09:51.658Z,27.20
2022-08-17T04:12:21.743Z,27.20
2022-08-17T04:14:53.286Z,27.20
2022-08-17T04:17:27.473Z,27.20
2022-08-17T04:19:58.177Z,27.20
2022-08-17T04:22:30.309Z,27.10
2022-08-17T04:25:05.115Z,27.10
2022-08-17T04:27:32.339Z,27.10
2022-08-17T04:30:00.342Z,27.10
2022-08-17T04:33:00.470Z,27.10
2022-08-17T04:35:19.091Z,27.10
2022-08-17T04:37:46.065Z,27.10
2022-08-17T04:40:31.529Z,27.10
2022-08-17T04:43:07.471Z,27.10
2022-08-17T04:45:38.908Z,27.10
2022-08-17T04:48:06.893Z,27.10
2022-08-17T04:50:42.805Z,27.10
2022-08-17T04:53:12.613Z,27.10
2022-08-17T04:55:40.199Z,27.10
2022-08-17T04:58:07.682Z,27.10
2022-08-17T05:00:37.354Z,27.10
2022-08-17T05:03:04.812Z,27.10
2022-08-17T05:05:36.337Z,27.10
2022-08-17T05:08:05.642Z,27.10
2022-08-17T05:10:37.430Z,27.10
2022-08-17T05:13:16.331Z,27.00
2022-08-17T05:15:47.779Z,27.10
2022-08-17T05:18:16.038Z,27.00
2022-08-17T05:20:43.565Z,27.10
2022-08-17T05:23:16.177Z,27.10
2022-08-17T05:25:47.702Z,27.10
2022-08-17T05:28:16.730Z,27.10
2022-08-17T05:30:44.755Z,27.10
2022-08-17T05:33:22.963Z,27.10
2022-08-17T05:35:51.655Z,27.10
2022-08-17T05:38:20.592Z,27.10
2022-08-17T05:40:48.175Z,27.10
2022-08-17T05:43:19.567Z,27.20
2022-08-17T05:45:55.678Z,27.20
2022-08-17T05:48:35.809Z,27.20
2022-08-17T05:51:27.909Z,27.30
2022-08-17T05:54:13.381Z,27.30
2022-08-17T05:57:15.356Z,27.30
2022-08-17T06:00:10.965Z,27.30
2022-08-17T06:03:16.083Z,27.40
2022-08-17T06:05:54.157Z,27.40
2022-08-17T06:08:35.256Z,27.50
2022-08-17T06:11:38.528Z,27.50
2022-08-17T06:14:09.246Z,27.50
2022-08-17T06:16:41.153Z,27.50
2022-08-17T06:19:30.950Z,27.60
2022-08-17T06:22:02.790Z,27.60
2022-08-17T06:24:38.352Z,27.70
2022-08-17T06:27:09.532Z,27.60
2022-08-17T06:29:58.118Z,27.70
2022-08-17T06:32:25.678Z,27.70
2022-08-17T06:34:53.495Z,27.70
2022-08-17T06:37:36.396Z,27.70
2022-08-17T06:40:27.417Z,27.70
2022-08-17T06:43:19.690Z,27.80
2022-08-17T06:45:59.157Z,27.80
2022-08-17T06:48:41.966Z,27.80
2022-08-17T06:51:25.873Z,27.80
2022-08-17T06:54:06.463Z,27.80
2022-08-17T06:56:54.276Z,27.90
2022-08-17T06:59:55.533Z,27.90
2022-08-17T07:02:58.498Z,27.90
2022-08-17T07:06:09.759Z,27.90
2022-08-17T07:09:01.447Z,27.90
2022-08-17T07:11:34.458Z,27.90
2022-08-17T07:14:27.510Z,28.00
2022-08-17T07:16:57.095Z,28.00
2022-08-17T07:19:31.665Z,28.00
2022-08-17T07:22:30.323Z,28.00
2022-08-17T07:25:20.774Z,28.10
2022-08-17T07:27:59.760Z,28.10
2022-08-17T07:30:37.262Z,28.10
2022-08-17T07:33:24.618Z,28.20
2022-08-17T07:35:52.125Z,28.20
2022-08-17T07:38:25.240Z,28.20
2022-08-17T07:41:03.158Z,28.20
2022-08-17T07:43:42.354Z,28.20
2022-08-17T07:46:30.730Z,28.30
2022-08-17T07:49:22.733Z,28.30
2022-08-17T07:51:50.447Z,28.30
2022-08-17T07:54:36.803Z,28.40
2022-08-17T07:57:15.409Z,28.40
2022-08-17T08:00:05.884Z,28.40
2022-08-17T08:02:43.696Z,28.40
2022-08-17T08:05:29.863Z,28.40
2022-08-17T08:08:23.809Z,28.40
2022-08-17T08:11:10.563Z,28.50
2022-08-17T08:13:42.745Z,28.50
2022-08-17T08:16:21.521Z,28.50
2022-08-17T08:18:56.745Z,28.50
2022-08-17T08:21:46.314Z,28.60
2022-08-17T08:24:29.996Z,28.60
2022-08-17T08:27:07.246Z,28.60
2022-08-17T08:29:44.290Z,28.70
2022-08-17T08:32:17.386Z,28.70
2022-08-17T08:35:05.440Z,28.70
2022-08-17T08:37:43.632Z,28.70
2022-08-17T08:40:29.998Z,28.80
2022-08-17T08:43:11.210Z,28.80
2022-08-17T08:45:46.878Z,28.80
2022-08-17T08:48:53.026Z,28.80
2022-08-17T08:51:30.587Z,28.80
2022-08-17T08:54:06.001Z,28.90
2022-08-17T08:57:22.197Z,28.90
2022-08-17T08:59:51.157Z,28.90
2022-08-17T09:02:40.183Z,29.00
2022-08-17T09:05:31.389Z,29.00
2022-08-17T09:08:01.258Z,29.00
2022-08-17T09:11:02.408Z,29.10
2022-08-17T09:13:55.638Z,29.10
2022-08-17T09:16:30.733Z,29.10
2022-08-17T09:19:04.831Z,29.10
2022-08-17T09:21:54.270Z,29.20
2022-08-17T09:24:46.864Z,29.20
2022-08-17T09:27:15.619Z,29.20
2022-08-17T09:30:00.808Z,29.20
2022-08-17T09:32:47.033Z,29.30
2022-08-17T09:35:22.731Z,29.30
2022-08-17T09:38:09.626Z,29.30
2022-08-17T09:41:01.641Z,29.30
2022-08-17T09:44:04.750Z,29.30
2022-08-17T09:46:41.002Z,29.40
2022-08-17T09:49:26.758Z,29.40
2022-08-17T09:52:24.605Z,29.40
2022-08-17T09:54:54.871Z,29.40
2022-08-17T09:57:46.877Z,29.40
2022-08-17T10:00:27.423Z,29.40
2022-08-17T10:03:26.194Z,29.40
2022-08-17T10:06:06.870Z,29.40
2022-08-17T10:08:43.257Z,29.40
2022-08-17T10:11:51.806Z,29.40
2022-08-17T10:14:36.801Z,29.40
2022-08-17T10:17:24.317Z,29.40
2022-08-17T10:19:51.196Z,29.40
2022-08-17T10:22:56.931Z,29.40
2022-08-17T10:25:54.761Z,29.40
2022-08-17T10:28:36.070Z,29.40
2022-08-17T10:31:33.094Z,29.40
2022-08-17T10:34:20.533Z,29.40
2022-08-17T10:36:56.252Z,29.40
2022-08-17T10:39:50.375Z,29.50
2022-08-17T10:42:30.149Z,29.50
2022-08-17T10:45:14.698Z,29.60
2022-08-17T10:48:06.255Z,29.60
2022-08-17T10:50:43.158Z,29.60
2022-08-17T10:53:10.649Z,29.60
2022-08-17T10:55:39.116Z,29.60
2022-08-17T10:58:24.439Z,29.70
2022-08-17T11:00:54.097Z,29.70
2022-08-17T11:03:23.738Z,29.70
2022-08-17T11:06:28.321Z,29.70
2022-08-17T11:08:58.308Z,29.80
2022-08-17T11:11:45.375Z,29.80
2022-08-17T11:14:44.558Z,29.80
2022-08-17T11:17:38.924Z,29.90
2022-08-17T11:20:27.694Z,29.90
2022-08-17T11:23:26.756Z,29.90
2022-08-17T11:25:57.582Z,29.90
2022-08-17T11:28:35.814Z,30.00
2022-08-17T11:31:23.526Z,30.10
2022-08-17T11:34:18.708Z,30.10
2022-08-17T11:37:01.637Z,30.20
2022-08-17T11:39:34.534Z,30.20
2022-08-17T11:42:49.528Z,30.30
2022-08-17T11:45:39.167Z,30.30
2022-08-17T11:48:44.179Z,30.30
2022-08-17T11:51:36.285Z,30.40
2022-08-17T11:54:31.572Z,30.50
2022-08-17T11:56:53.680Z,30.50
2022-08-17T11:59:45.845Z,30.50
2022-08-17T12:02:32.485Z,30.50
2022-08-17T12:05:15.017Z,30.50
2022-08-17T12:07:52.417Z,30.60
2022-08-17T12:10:23.642Z,30.60
2022-08-17T12:12:53.264Z,30.60
2022-08-17T12:15:29.460Z,30.60
2022-08-17T12:17:57.180Z,30.60
2022-08-17T12:20:29.157Z,30.60
2022-08-17T12:23:14.652Z,30.60
2022-08-17T12:26:11.743Z,30.60
2022-08-17T12:28:45.378Z,30.70
2022-08-17T12:31:19.635Z,30.70
2022-08-17T12:33:48.239Z,30.70
2022-08-17T12:36:18.641Z,30.80
2022-08-17T12:39:14.317Z,30.80
2022-08-17T12:41:45.250Z,30.80
2022-08-17T12:44:19.267Z,30.80
2022-08-17T12:46:49.335Z,30.90
2022-08-17T12:49:28.899Z,30.90
2022-08-17T12:52:25.705Z,30.90
2022-08-17T12:54:57.006Z,30.90
2022-08-17T12:57:33.349Z,30.90
2022-08-17T13:00:15.755Z,30.90
2022-08-17T13:02:50.053Z,30.90
2022-08-17T13:05:53.853Z,30.90
2022-08-17T13:08:37.601Z,30.90
2022-08-17T13:11:09.394Z,30.90
2022-08-17T13:13:40.061Z,30.90
2022-08-17T13:16:17.855Z,30.80
2022-08-17T13:18:52.163Z,30.80
2022-08-17T13:21:27.011Z,30.80
2022-08-17T13:24:17.219Z,30.90
2022-08-17T13:26:49.328Z,30.90
2022-08-17T13:29:33.178Z,31.00
2022-08-17T13:32:09.065Z,31.00
2022-08-17T13:35:12.291Z,31.00
2022-08-17T13:37:38.584Z,31.00
2022-08-17T13:40:10.691Z,31.00
2022-08-17T13:42:51.822Z,31.00
2022-08-17T13:45:36.847Z,30.90
2022-08-17T13:48:13.761Z,30.90
2022-08-17T13:50:42.867Z,30.90
2022-08-17T13:53:40.491Z,30.90
2022-08-17T13:56:31.685Z,30.90
2022-08-17T13:59:52.577Z,30.80
2022-08-17T14:02:19.740Z,30.80
2022-08-17T14:04:47.887Z,30.80
2022-08-17T14:07:16.031Z,30.80
2022-08-17T14:09:57.743Z,30.70
2022-08-17T14:12:26.670Z,30.70
2022-08-17T14:14:56.415Z,30.70
2022-08-17T14:17:24.677Z,30.60
2022-08-17T14:19:52.159Z,30.60
2022-08-17T14:22:24.200Z,30.60
2022-08-17T14:24:51.397Z,30.60
2022-08-17T14:27:20.524Z,30.60
2022-08-17T14:29:49.357Z,30.60
2022-08-17T14:32:22.010Z,30.60
2022-08-17T14:34:49.711Z,30.60
2022-08-17T14:37:18.299Z,30.60
2022-08-17T14:39:45.474Z,30.60
2022-08-17T14:42:13.035Z,30.60
2022-08-17T14:44:40.106Z,30.60
2022-08-17T14:47:12.220Z,30.50
2022-08-17T14:49:39.230Z,30.50
2022-08-17T14:52:06.751Z,30.50
2022-08-17T14:54:34.713Z,30.50
2022-08-17T14:57:24.807Z,30.50
2022-08-17T14:59:53.372Z,30.50
2022-08-17T15:02:29.171Z,30.50
2022-08-17T15:05:03.816Z,30.40
2022-08-17T15:07:31.471Z,30.40
2022-08-17T15:10:02.651Z,30.40
2022-08-17T15:12:34.612Z,30.40
2022-08-17T15:15:05.440Z,30.30
2022-08-17T15:17:44.617Z,30.30
2022-08-17T15:20:16.789Z,30.30
2022-08-17T15:22:45.782Z,30.20
2022-08-17T15:25:13.959Z,30.20
2022-08-17T15:27:41.308Z,30.20
2022-08-17T15:30:10.057Z,30.20
2022-08-17T15:32:39.254Z,30.10
2022-08-17T15:35:07.688Z,30.10
2022-08-17T15:37:36.353Z,30.10
2022-08-17T15:40:04.497Z,30.00
2022-08-17T15:42:32.417Z,29.90
2022-08-17T15:45:04.353Z,29.80
2022-08-17T15:47:31.390Z,29.80
2022-08-17T15:50:00.252Z,29.80
2022-08-17T15:52:30.033Z,29.80
2022-08-17T15:55:00.167Z,29.70
2022-08-17T15:57:28.128Z,29.70
2022-08-17T15:59:58.620Z,29.60
2022-08-17T16:03:44.913Z,29.60
2022-08-17T16:05:24.088Z,29.60
2022-08-17T16:07:52.939Z,29.50
2022-08-17T16:10:21.008Z,29.50
2022-08-17T16:12:49.812Z,29.40
2022-08-17T16:15:18.542Z,29.40
2022-08-17T16:17:45.616Z,29.30
2022-08-17T16:20:20.482Z,29.30
2022-08-17T16:22:50.126Z,29.30
2022-08-17T16:25:22.140Z,29.30
2022-08-17T16:27:53.381Z,29.30
2022-08-17T16:30:23.724Z,29.20
2022-08-17T16:32:53.047Z,29.20
2022-08-17T16:35:22.619Z,29.20
2022-08-17T16:37:49.834Z,29.20
2022-08-17T16:40:17.569Z,29.20
2022-08-17T16:42:46.776Z,29.20
2022-08-17T16:45:18.513Z,29.20
2022-08-17T16:47:45.602Z,29.20
2022-08-17T16:50:15.409Z,29.20
2022-08-17T16:52:43.128Z,29.10
2022-08-17T16:55:13.353Z,29.20
2022-08-17T16:57:47.432Z,29.10
2022-08-17T17:00:20.799Z,29.10
2022-08-17T17:02:49.586Z,29.10
2022-08-17T17:05:51.419Z,29.10
2022-08-17T17:08:35.123Z,29.10
2022-08-17T17:11:11.911Z,29.10
2022-08-17T17:13:40.925Z,29.10
2022-08-17T17:16:18.492Z,29.10
2022-08-17T17:18:58.903Z,29.10
2022-08-17T17:21:37.437Z,29.10
2022-08-17T17:24:12.301Z,29.10
2022-08-17T17:26:53.859Z,29.00
2022-08-17T17:29:54.089Z,29.10
2022-08-17T17:32:48.155Z,29.00
2022-08-17T17:35:23.340Z,29.00
2022-08-17T17:37:52.406Z,29.00
2022-08-17T17:40:24.485Z,29.00
2022-08-17T17:42:55.293Z,28.90
2022-08-17T17:45:48.109Z,28.90
2022-08-17T17:48:18.335Z,28.80
2022-08-17T17:51:02.714Z,28.90
2022-08-17T17:53:57.376Z,28.80
2022-08-17T17:56:44.668Z,28.80
2022-08-17T17:59:32.497Z,28.80
2022-08-17T18:02:40.652Z,28.80
2022-08-17T18:05:18.258Z,28.80
2022-08-17T18:07:55.519Z,28.80
2022-08-17T18:10:49.919Z,28.70
2022-08-17T18:13:32.645Z,28.70
2022-08-17T18:16:01.034Z,28.60
2022-08-17T18:18:40.352Z,28.50
2022-08-17T18:21:35.784Z,28.50
2022-08-17T18:24:06.363Z,28.40
2022-08-17T18:26:33.358Z,28.40
2022-08-17T18:29:01.520Z,28.30
2022-08-17T18:31:28.544Z,28.30
2022-08-17T18:34:43.760Z,28.30
2022-08-17T18:37:09.493Z,28.20
2022-08-17T18:39:39.428Z,28.20
2022-08-17T18:42:28.279Z,28.20
2022-08-17T18:44:56.060Z,28.20
2022-08-17T18:47:23.106Z,28.20
2022-08-17T18:50:14.667Z,28.20
2022-08-17T18:52:41.818Z,28.10
2022-08-17T18:55:31.353Z,28.20
2022-08-17T18:58:18.300Z,28.10
2022-08-17T19:00:48.424Z,28.10
2022-08-17T19:03:15.523Z,28.10
2022-08-17T19:05:46.411Z,28.10
2022-08-17T19:08:22.643Z,28.10
2022-08-17T19:11:03.614Z,28.10
2022-08-17T19:13:42.797Z,28.10
2022-08-17T19:16:37.097Z,28.10
2022-08-17T19:19:23.351Z,28.10
2022-08-17T19:21:59.019Z,28.10
2022-08-17T19:24:29.461Z,28.10
2022-08-17T19:27:01.064Z,28.10
2022-08-17T19:29:57.970Z,28.00
2022-08-17T19:32:29.333Z,28.00
2022-08-17T19:34:57.334Z,27.90
2022-08-17T19:37:42.296Z,27.90
2022-08-17T19:40:41.724Z,27.90
2022-08-17T19:43:40.733Z,27.80
2022-08-17T19:46:35.685Z,27.80
2022-08-17T19:49:16.735Z,27.80
2022-08-17T19:52:00.732Z,27.70
2022-08-17T19:54:31.034Z,27.70
2022-08-17T19:57:27.281Z,27.70
2022-08-17T20:00:01.834Z,27.70
2022-08-17T20:02:43.248Z,27.70
2022-08-17T20:05:21.865Z,27.70
2022-08-17T20:08:03.749Z,27.70
2022-08-17T20:11:02.235Z,27.70
2022-08-17T20:13:52.206Z,27.70
2022-08-17T20:16:20.262Z,27.60
2022-08-17T20:19:00.207Z,27.60
2022-08-17T20:21:56.060Z,27.60
2022-08-17T20:24:38.105Z,27.60
2022-08-17T20:27:31.797Z,27.60
2022-08-17T20:30:12.055Z,27.60
2022-08-17T20:32:49.545Z,27.60
2022-08-17T20:35:16.890Z,27.60
2022-08-17T20:37:55.729Z,27.60
2022-08-17T20:40:29.385Z,27.60
2022-08-17T20:42:58.219Z,27.60
2022-08-17T20:45:26.271Z,27.60
2022-08-17T20:48:27.237Z,27.50
2022-08-17T20:50:51.428Z,27.60
2022-08-17T20:53:49.389Z,27.50
2022-08-17T20:56:44.382Z,27.50
2022-08-17T20:59:27.594Z,27.50
2022-08-17T21:02:18.814Z,27.50
2022-08-17T21:04:56.299Z,27.50
2022-08-17T21:07:25.308Z,27.50
2022-08-17T21:09:52.856Z,27.50
2022-08-17T21:12:56.079Z,27.50
2022-08-17T21:15:25.701Z,27.50
2022-08-17T21:18:01.117Z,27.50
2022-08-17T21:21:17.770Z,27.50
2022-08-17T21:24:03.890Z,27.50
2022-08-17T21:27:01.284Z,27.50
2022-08-17T21:29:33.790Z,27.50
2022-08-17T21:32:05.371Z,27.50
2022-08-17T21:35:04.409Z,27.50
2022-08-17T21:37:42.191Z,27.50
2022-08-17T21:40:18.150Z,27.50
2022-08-17T21:42:55.396Z,27.40
2022-08-17T21:45:25.346Z,27.50
2022-08-17T21:48:14.445Z,27.50
2022-08-17T21:50:45.091Z,27.50
2022-08-17T21:53:21.590Z,27.50
2022-08-17T21:55:50.322Z,27.50
2022-08-17T21:58:33.324Z,27.50
2022-08-17T22:01:19.872Z,27.50
2022-08-17T22:03:56.352Z,27.50
2022-08-17T22:06:28.837Z,27.40
2022-08-17T22:09:05.537Z,27.40
2022-08-17T22:12:05.740Z,27.50
2022-08-17T22:14:52.888Z,27.40
2022-08-17T22:17:49.063Z,27.50
2022-08-17T22:20:19.145Z,27.40
2022-08-17T22:23:04.627Z,27.40
2022-08-17T22:25:36.153Z,27.40
2022-08-17T22:28:09.074Z,27.40
2022-08-17T22:30:42.858Z,27.40
2022-08-17T22:33:37.092Z,27.40
2022-08-17T22:36:30.444Z,27.40
2022-08-17T22:38:59.089Z,27.40
2022-08-17T22:41:27.955Z,27.30
2022-08-17T22:43:57.335Z,27.40
2022-08-17T22:46:26.146Z,27.30
2022-08-17T22:48:57.812Z,27.30
2022-08-17T22:51:28.677Z,27.30
2022-08-17T22:54:20.138Z,27.30
2022-08-17T22:57:15.349Z,27.30
2022-08-17T22:59:51.632Z,27.30
2022-08-17T23:02:25.175Z,27.30
2022-08-17T23:05:15.734Z,27.20
2022-08-17T23:07:45.015Z,27.20
2022-08-17T23:10:13.298Z,27.20
2022-08-17T23:12:40.618Z,27.20
2022-08-17T23:15:15.421Z,27.20
2022-08-17T23:17:42.772Z,27.20
2022-08-17T23:20:15.048Z,27.20
2022-08-17T23:22:51.502Z,27.20
2022-08-17T23:25:31.975Z,27.20
2022-08-17T23:28:01.535Z,27.20
2022-08-17T23:30:34.683Z,27.20
2022-08-17T23:33:05.958Z,27.20
2022-08-17T23:35:39.102Z,27.20
2022-08-17T23:38:11.840Z,27.20
2022-08-17T23:40:39.887Z,27.20
2022-08-17T23:43:24.353Z,27.20
2022-08-17T23:45:53.992Z,27.20
2022-08-17T23:48:35.146Z,27.20
2022-08-17T23:51:24.757Z,27.10
2022-08-17T23:53:58.019Z,27.10
2022-08-17T23:56:25.901Z,27.10
2022-08-17T23:58:55.237Z,27.10
